sensor_id;sensor_type;location;lat;lon;timestamp;P1;durP1;ratioP1;P2;durP2;ratioP2
76867;SDS011;66168;45.478;11.060;2023-01-23T00:01:26;3.40;;;2.60;;
76867;SDS011;66168;45.478;11.060;2023-01-23T00:03:55;3.50;;;2.50;;
76867;SDS011;66168;45.478;11.060;2023-01-23T00:06:23;3.90;;;2.70;;
76867;SDS011;66168;45.478;11.060;2023-01-23T00:08:50;3.50;;;2.50;;
76867;SDS011;66168;45.478;11.060;2023-01-23T00:11:18;3.70;;;2.50;;
76867;SDS011;66168;45.478;11.060;2023-01-23T00:13:47;3.30;;;2.30;;
76867;SDS011;66168;45.478;11.060;2023-01-23T00:16:15;2.90;;;2.10;;
76867;SDS011;66168;45.478;11.060;2023-01-23T00:18:47;3.20;;;2.60;;
76867;SDS011;66168;45.478;11.060;2023-01-23T00:21:15;3.60;;;2.60;;
76867;SDS011;66168;45.478;11.060;2023-01-23T00:23:45;4.90;;;2.90;;
76867;SDS011;66168;45.478;11.060;2023-01-23T00:26:15;3.10;;;2.60;;
76867;SDS011;66168;45.478;11.060;2023-01-23T00:28:44;3.60;;;2.60;;
76867;SDS011;66168;45.478;11.060;2023-01-23T00:31:16;2.90;;;2.40;;
76867;SDS011;66168;45.478;11.060;2023-01-23T00:33:47;4.40;;;2.70;;
76867;SDS011;66168;45.478;11.060;2023-01-23T00:36:21;2.50;;;1.90;;
76867;SDS011;66168;45.478;11.060;2023-01-23T00:38:48;3.20;;;2.50;;
76867;SDS011;66168;45.478;11.060;2023-01-23T00:41:15;4.10;;;2.90;;
76867;SDS011;66168;45.478;11.060;2023-01-23T00:43:42;3.60;;;2.40;;
76867;SDS011;66168;45.478;11.060;2023-01-23T00:46:08;5.60;;;2.60;;
76867;SDS011;66168;45.478;11.060;2023-01-23T00:48:35;3.30;;;2.70;;
76867;SDS011;66168;45.478;11.060;2023-01-23T00:51:02;4.10;;;2.80;;
76867;SDS011;66168;45.478;11.060;2023-01-23T00:53:29;2.60;;;2.30;;
76867;SDS011;66168;45.478;11.060;2023-01-23T00:55:56;3.30;;;2.50;;
76867;SDS011;66168;45.478;11.060;2023-01-23T00:58:22;3.00;;;2.50;;
76867;SDS011;66168;45.478;11.060;2023-01-23T01:00:49;2.40;;;2.20;;
76867;SDS011;66168;45.478;11.060;2023-01-23T01:03:16;2.80;;;2.30;;
76867;SDS011;66168;45.478;11.060;2023-01-23T01:05:44;3.60;;;2.80;;
76867;SDS011;66168;45.478;11.060;2023-01-23T01:08:11;3.10;;;2.50;;
76867;SDS011;66168;45.478;11.060;2023-01-23T01:10:39;3.40;;;2.30;;
76867;SDS011;66168;45.478;11.060;2023-01-23T01:13:07;3.20;;;2.70;;
76867;SDS011;66168;45.478;11.060;2023-01-23T01:15:36;3.00;;;2.40;;
76867;SDS011;66168;45.478;11.060;2023-01-23T01:18:03;3.30;;;2.70;;
76867;SDS011;66168;45.478;11.060;2023-01-23T01:20:30;3.80;;;3.00;;
76867;SDS011;66168;45.478;11.060;2023-01-23T01:22:57;7.30;;;2.80;;
76867;SDS011;66168;45.478;11.060;2023-01-23T01:25:26;2.50;;;2.30;;
76867;SDS011;66168;45.478;11.060;2023-01-23T01:27:53;3.30;;;2.80;;
76867;SDS011;66168;45.478;11.060;2023-01-23T01:30:21;2.70;;;2.00;;
76867;SDS011;66168;45.478;11.060;2023-01-23T01:32:50;3.10;;;2.30;;
76867;SDS011;66168;45.478;11.060;2023-01-23T01:35:17;4.00;;;2.70;;
76867;SDS011;66168;45.478;11.060;2023-01-23T01:37:44;3.30;;;2.50;;
76867;SDS011;66168;45.478;11.060;2023-01-23T01:40:13;4.80;;;2.20;;
76867;SDS011;66168;45.478;11.060;2023-01-23T01:43:05;4.20;;;2.30;;
76867;SDS011;66168;45.478;11.060;2023-01-23T01:45:57;3.60;;;2.40;;
76867;SDS011;66168;45.478;11.060;2023-01-23T01:48:37;2.70;;;2.30;;
76867;SDS011;66168;45.478;11.060;2023-01-23T01:51:16;3.40;;;2.60;;
76867;SDS011;66168;45.478;11.060;2023-01-23T01:53:47;4.40;;;2.10;;
76867;SDS011;66168;45.478;11.060;2023-01-23T01:56:20;4.30;;;2.20;;
76867;SDS011;66168;45.478;11.060;2023-01-23T01:58:48;3.30;;;2.50;;
76867;SDS011;66168;45.478;11.060;2023-01-23T02:01:18;2.60;;;2.30;;
76867;SDS011;66168;45.478;11.060;2023-01-23T02:03:46;2.40;;;2.20;;
76867;SDS011;66168;45.478;11.060;2023-01-23T02:06:14;3.50;;;2.70;;
76867;SDS011;66168;45.478;11.060;2023-01-23T02:08:44;2.50;;;2.30;;
76867;SDS011;66168;45.478;11.060;2023-01-23T02:11:23;3.30;;;2.40;;
76867;SDS011;66168;45.478;11.060;2023-01-23T02:13:50;4.10;;;2.50;;
76867;SDS011;66168;45.478;11.060;2023-01-23T02:16:24;2.30;;;2.10;;
76867;SDS011;66168;45.478;11.060;2023-01-23T02:18:57;3.00;;;2.50;;
76867;SDS011;66168;45.478;11.060;2023-01-23T02:21:26;2.90;;;2.50;;
76867;SDS011;66168;45.478;11.060;2023-01-23T02:24:01;3.20;;;2.30;;
76867;SDS011;66168;45.478;11.060;2023-01-23T02:26:43;3.50;;;2.20;;
76867;SDS011;66168;45.478;11.060;2023-01-23T02:29:12;4.00;;;2.50;;
76867;SDS011;66168;45.478;11.060;2023-01-23T02:31:46;3.00;;;2.20;;
76867;SDS011;66168;45.478;11.060;2023-01-23T02:34:15;3.90;;;2.50;;
76867;SDS011;66168;45.478;11.060;2023-01-23T02:36:43;4.00;;;2.40;;
76867;SDS011;66168;45.478;11.060;2023-01-23T02:39:14;3.50;;;2.60;;
76867;SDS011;66168;45.478;11.060;2023-01-23T02:41:48;3.70;;;2.60;;
76867;SDS011;66168;45.478;11.060;2023-01-23T02:44:22;3.20;;;2.60;;
76867;SDS011;66168;45.478;11.060;2023-01-23T02:46:56;3.20;;;2.50;;
76867;SDS011;66168;45.478;11.060;2023-01-23T02:49:25;3.00;;;2.40;;
76867;SDS011;66168;45.478;11.060;2023-01-23T02:51:53;3.50;;;2.30;;
76867;SDS011;66168;45.478;11.060;2023-01-23T02:54:22;5.10;;;2.20;;
76867;SDS011;66168;45.478;11.060;2023-01-23T02:56:49;3.00;;;2.50;;
76867;SDS011;66168;45.478;11.060;2023-01-23T02:59:19;2.70;;;2.00;;
76867;SDS011;66168;45.478;11.060;2023-01-23T03:02:05;2.50;;;2.10;;
76867;SDS011;66168;45.478;11.060;2023-01-23T03:04:32;2.20;;;1.80;;
76867;SDS011;66168;45.478;11.060;2023-01-23T03:06:59;3.90;;;2.80;;
76867;SDS011;66168;45.478;11.060;2023-01-23T03:09:26;3.00;;;2.60;;
76867;SDS011;66168;45.478;11.060;2023-01-23T03:11:53;2.50;;;2.00;;
76867;SDS011;66168;45.478;11.060;2023-01-23T03:14:20;2.90;;;2.10;;
76867;SDS011;66168;45.478;11.060;2023-01-23T03:16:49;1.90;;;1.80;;
76867;SDS011;66168;45.478;11.060;2023-01-23T03:19:19;2.70;;;2.00;;
76867;SDS011;66168;45.478;11.060;2023-01-23T03:21:49;2.90;;;2.20;;
76867;SDS011;66168;45.478;11.060;2023-01-23T03:24:16;3.10;;;2.70;;
76867;SDS011;66168;45.478;11.060;2023-01-23T03:26:44;2.80;;;2.20;;
76867;SDS011;66168;45.478;11.060;2023-01-23T03:29:16;3.20;;;2.30;;
76867;SDS011;66168;45.478;11.060;2023-01-23T03:32:05;2.60;;;1.80;;
76867;SDS011;66168;45.478;11.060;2023-01-23T03:34:33;3.00;;;2.20;;
76867;SDS011;66168;45.478;11.060;2023-01-23T03:37:00;2.20;;;1.90;;
76867;SDS011;66168;45.478;11.060;2023-01-23T03:39:27;2.10;;;1.70;;
76867;SDS011;66168;45.478;11.060;2023-01-23T03:42:15;1.40;;;1.30;;
76867;SDS011;66168;45.478;11.060;2023-01-23T03:44:42;2.00;;;1.80;;
76867;SDS011;66168;45.478;11.060;2023-01-23T03:47:09;1.70;;;1.60;;
76867;SDS011;66168;45.478;11.060;2023-01-23T03:49:37;1.70;;;1.20;;
76867;SDS011;66168;45.478;11.060;2023-01-23T03:52:04;1.40;;;1.30;;
76867;SDS011;66168;45.478;11.060;2023-01-23T03:54:31;1.00;;;0.90;;
76867;SDS011;66168;45.478;11.060;2023-01-23T03:56:59;0.80;;;0.80;;
76867;SDS011;66168;45.478;11.060;2023-01-23T03:59:48;0.80;;;0.80;;
76867;SDS011;66168;45.478;11.060;2023-01-23T04:02:17;0.80;;;0.80;;
76867;SDS011;66168;45.478;11.060;2023-01-23T04:04:44;0.80;;;0.80;;
76867;SDS011;66168;45.478;11.060;2023-01-23T04:07:11;1.70;;;0.90;;
76867;SDS011;66168;45.478;11.060;2023-01-23T04:09:38;0.80;;;0.80;;
76867;SDS011;66168;45.478;11.060;2023-01-23T04:12:05;0.50;;;0.50;;
76867;SDS011;66168;45.478;11.060;2023-01-23T04:14:34;1.00;;;0.90;;
76867;SDS011;66168;45.478;11.060;2023-01-23T04:17:04;0.80;;;0.80;;
76867;SDS011;66168;45.478;11.060;2023-01-23T04:19:32;0.90;;;0.90;;
76867;SDS011;66168;45.478;11.060;2023-01-23T04:22:00;0.80;;;0.80;;
76867;SDS011;66168;45.478;11.060;2023-01-23T04:24:30;0.80;;;0.80;;
76867;SDS011;66168;45.478;11.060;2023-01-23T04:26:56;0.60;;;0.60;;
76867;SDS011;66168;45.478;11.060;2023-01-23T04:29:24;1.40;;;0.90;;
76867;SDS011;66168;45.478;11.060;2023-01-23T04:31:51;0.70;;;0.70;;
76867;SDS011;66168;45.478;11.060;2023-01-23T04:34:18;0.60;;;0.60;;
76867;SDS011;66168;45.478;11.060;2023-01-23T04:36:47;0.70;;;0.70;;
76867;SDS011;66168;45.478;11.060;2023-01-23T04:39:14;0.80;;;0.60;;
76867;SDS011;66168;45.478;11.060;2023-01-23T04:41:43;1.30;;;0.80;;
76867;SDS011;66168;45.478;11.060;2023-01-23T04:44:21;1.70;;;0.90;;
76867;SDS011;66168;45.478;11.060;2023-01-23T04:47:05;1.00;;;0.80;;
76867;SDS011;66168;45.478;11.060;2023-01-23T04:49:33;1.20;;;1.10;;
76867;SDS011;66168;45.478;11.060;2023-01-23T04:51:59;1.00;;;1.00;;
76867;SDS011;66168;45.478;11.060;2023-01-23T04:54:30;0.70;;;0.70;;
76867;SDS011;66168;45.478;11.060;2023-01-23T04:56:58;1.00;;;1.00;;
76867;SDS011;66168;45.478;11.060;2023-01-23T04:59:24;0.80;;;0.80;;
76867;SDS011;66168;45.478;11.060;2023-01-23T05:01:51;0.80;;;0.80;;
76867;SDS011;66168;45.478;11.060;2023-01-23T05:04:19;2.10;;;0.90;;
76867;SDS011;66168;45.478;11.060;2023-01-23T05:06:46;0.60;;;0.60;;
76867;SDS011;66168;45.478;11.060;2023-01-23T05:09:14;0.50;;;0.50;;
76867;SDS011;66168;45.478;11.060;2023-01-23T05:11:49;0.90;;;0.80;;
76867;SDS011;66168;45.478;11.060;2023-01-23T05:14:16;1.10;;;0.90;;
76867;SDS011;66168;45.478;11.060;2023-01-23T05:16:45;0.70;;;0.70;;
76867;SDS011;66168;45.478;11.060;2023-01-23T05:19:15;1.60;;;0.90;;
76867;SDS011;66168;45.478;11.060;2023-01-23T05:21:42;1.70;;;1.20;;
76867;SDS011;66168;45.478;11.060;2023-01-23T05:24:13;0.70;;;0.70;;
76867;SDS011;66168;45.478;11.060;2023-01-23T05:26:40;0.90;;;0.90;;
76867;SDS011;66168;45.478;11.060;2023-01-23T05:29:08;0.90;;;0.90;;
76867;SDS011;66168;45.478;11.060;2023-01-23T05:31:38;1.20;;;1.10;;
76867;SDS011;66168;45.478;11.060;2023-01-23T05:34:24;0.80;;;0.80;;
76867;SDS011;66168;45.478;11.060;2023-01-23T05:36:52;1.50;;;1.20;;
76867;SDS011;66168;45.478;11.060;2023-01-23T05:39:18;2.10;;;1.00;;
76867;SDS011;66168;45.478;11.060;2023-01-23T05:41:45;2.80;;;2.30;;
76867;SDS011;66168;45.478;11.060;2023-01-23T05:44:28;1.50;;;1.30;;
76867;SDS011;66168;45.478;11.060;2023-01-23T05:47:03;1.10;;;1.00;;
76867;SDS011;66168;45.478;11.060;2023-01-23T05:49:29;1.10;;;1.00;;
76867;SDS011;66168;45.478;11.060;2023-01-23T05:51:57;20.90;;;14.10;;
76867;SDS011;66168;45.478;11.060;2023-01-23T05:54:24;35.20;;;22.80;;
76867;SDS011;66168;45.478;11.060;2023-01-23T05:56:51;21.70;;;10.40;;
76867;SDS011;66168;45.478;11.060;2023-01-23T05:59:36;16.00;;;8.70;;
76867;SDS011;66168;45.478;11.060;2023-01-23T06:02:14;18.60;;;9.70;;
76867;SDS011;66168;45.478;11.060;2023-01-23T06:05:02;10.50;;;6.20;;
76867;SDS011;66168;45.478;11.060;2023-01-23T06:07:44;28.50;;;12.70;;
76867;SDS011;66168;45.478;11.060;2023-01-23T06:10:11;16.70;;;7.50;;
76867;SDS011;66168;45.478;11.060;2023-01-23T06:12:40;6.70;;;3.60;;
76867;SDS011;66168;45.478;11.060;2023-01-23T06:15:07;5.70;;;3.10;;
76867;SDS011;66168;45.478;11.060;2023-01-23T06:17:34;16.20;;;10.30;;
76867;SDS011;66168;45.478;11.060;2023-01-23T06:20:03;18.30;;;9.80;;
76867;SDS011;66168;45.478;11.060;2023-01-23T06:22:31;13.50;;;8.10;;
76867;SDS011;66168;45.478;11.060;2023-01-23T06:25:04;4.40;;;3.00;;
76867;SDS011;66168;45.478;11.060;2023-01-23T06:27:32;3.00;;;2.20;;
76867;SDS011;66168;45.478;11.060;2023-01-23T06:30:01;2.70;;;2.10;;
76867;SDS011;66168;45.478;11.060;2023-01-23T06:32:29;3.20;;;2.30;;
76867;SDS011;66168;45.478;11.060;2023-01-23T06:34:56;2.80;;;2.20;;
76867;SDS011;66168;45.478;11.060;2023-01-23T06:37:22;5.60;;;2.20;;
76867;SDS011;66168;45.478;11.060;2023-01-23T06:39:49;2.60;;;2.10;;
76867;SDS011;66168;45.478;11.060;2023-01-23T06:42:18;2.30;;;2.10;;
76867;SDS011;66168;45.478;11.060;2023-01-23T06:44:47;4.70;;;2.80;;
76867;SDS011;66168;45.478;11.060;2023-01-23T06:47:14;3.20;;;2.10;;
76867;SDS011;66168;45.478;11.060;2023-01-23T06:49:42;2.90;;;2.40;;
76867;SDS011;66168;45.478;11.060;2023-01-23T06:52:09;3.50;;;2.30;;
76867;SDS011;66168;45.478;11.060;2023-01-23T06:54:36;2.40;;;2.10;;
76867;SDS011;66168;45.478;11.060;2023-01-23T06:57:04;4.10;;;2.20;;
76867;SDS011;66168;45.478;11.060;2023-01-23T06:59:32;3.90;;;2.10;;
76867;SDS011;66168;45.478;11.060;2023-01-23T07:02:00;3.90;;;2.00;;
76867;SDS011;66168;45.478;11.060;2023-01-23T07:04:41;8.90;;;4.70;;
76867;SDS011;66168;45.478;11.060;2023-01-23T07:07:09;11.10;;;4.30;;
76867;SDS011;66168;45.478;11.060;2023-01-23T07:09:37;8.20;;;2.70;;
76867;SDS011;66168;45.478;11.060;2023-01-23T07:12:18;7.90;;;3.70;;
76867;SDS011;66168;45.478;11.060;2023-01-23T07:14:45;6.40;;;2.30;;
76867;SDS011;66168;45.478;11.060;2023-01-23T07:17:15;13.60;;;7.90;;
76867;SDS011;66168;45.478;11.060;2023-01-23T07:19:42;18.50;;;8.90;;
76867;SDS011;66168;45.478;11.060;2023-01-23T07:22:10;12.80;;;8.40;;
76867;SDS011;66168;45.478;11.060;2023-01-23T07:24:37;20.20;;;12.70;;
76867;SDS011;66168;45.478;11.060;2023-01-23T07:27:03;10.60;;;6.80;;
76867;SDS011;66168;45.478;11.060;2023-01-23T07:29:30;4.50;;;3.80;;
76867;SDS011;66168;45.478;11.060;2023-01-23T07:31:57;7.40;;;4.30;;
76867;SDS011;66168;45.478;11.060;2023-01-23T07:34:26;7.70;;;3.80;;
76867;SDS011;66168;45.478;11.060;2023-01-23T07:36:53;11.20;;;7.20;;
76867;SDS011;66168;45.478;11.060;2023-01-23T07:39:20;5.40;;;3.90;;
76867;SDS011;66168;45.478;11.060;2023-01-23T07:41:47;17.80;;;10.00;;
76867;SDS011;66168;45.478;11.060;2023-01-23T07:44:15;9.30;;;5.00;;
76867;SDS011;66168;45.478;11.060;2023-01-23T07:46:43;6.90;;;3.20;;
76867;SDS011;66168;45.478;11.060;2023-01-23T07:49:11;7.90;;;4.30;;
76867;SDS011;66168;45.478;11.060;2023-01-23T07:51:38;18.10;;;7.60;;
76867;SDS011;66168;45.478;11.060;2023-01-23T07:54:05;7.50;;;4.60;;
76867;SDS011;66168;45.478;11.060;2023-01-23T07:56:32;6.80;;;4.40;;
76867;SDS011;66168;45.478;11.060;2023-01-23T07:58:58;5.60;;;3.60;;
76867;SDS011;66168;45.478;11.060;2023-01-23T08:01:26;7.40;;;4.70;;
76867;SDS011;66168;45.478;11.060;2023-01-23T08:03:52;14.30;;;6.00;;
76867;SDS011;66168;45.478;11.060;2023-01-23T08:06:19;5.20;;;3.80;;
76867;SDS011;66168;45.478;11.060;2023-01-23T08:08:47;3.40;;;2.80;;
76867;SDS011;66168;45.478;11.060;2023-01-23T08:11:14;4.40;;;2.80;;
76867;SDS011;66168;45.478;11.060;2023-01-23T08:13:41;4.00;;;2.90;;
76867;SDS011;66168;45.478;11.060;2023-01-23T08:16:08;5.10;;;2.80;;
76867;SDS011;66168;45.478;11.060;2023-01-23T08:18:38;4.00;;;2.60;;
76867;SDS011;66168;45.478;11.060;2023-01-23T08:21:05;6.60;;;4.20;;
76867;SDS011;66168;45.478;11.060;2023-01-23T08:23:32;3.40;;;2.80;;
76867;SDS011;66168;45.478;11.060;2023-01-23T08:26:02;12.10;;;6.50;;
76867;SDS011;66168;45.478;11.060;2023-01-23T08:28:31;6.10;;;3.60;;
76867;SDS011;66168;45.478;11.060;2023-01-23T08:31:02;4.10;;;3.20;;
76867;SDS011;66168;45.478;11.060;2023-01-23T08:33:32;2.50;;;2.30;;
76867;SDS011;66168;45.478;11.060;2023-01-23T08:35:59;4.50;;;2.70;;
76867;SDS011;66168;45.478;11.060;2023-01-23T08:38:27;3.60;;;2.90;;
76867;SDS011;66168;45.478;11.060;2023-01-23T08:40:57;5.20;;;3.10;;
76867;SDS011;66168;45.478;11.060;2023-01-23T08:43:25;1.00;;;1.00;;
76867;SDS011;66168;45.478;11.060;2023-01-23T08:45:53;1.90;;;1.40;;
76867;SDS011;66168;45.478;11.060;2023-01-23T08:48:22;1.40;;;1.00;;
76867;SDS011;66168;45.478;11.060;2023-01-23T08:50:50;0.70;;;0.70;;
76867;SDS011;66168;45.478;11.060;2023-01-23T08:53:23;3.30;;;1.80;;
76867;SDS011;66168;45.478;11.060;2023-01-23T08:55:50;1.20;;;1.10;;
76867;SDS011;66168;45.478;11.060;2023-01-23T08:58:16;1.10;;;1.00;;
76867;SDS011;66168;45.478;11.060;2023-01-23T09:00:43;1.70;;;1.30;;
76867;SDS011;66168;45.478;11.060;2023-01-23T09:03:10;0.80;;;0.80;;
76867;SDS011;66168;45.478;11.060;2023-01-23T09:05:36;0.90;;;0.90;;
76867;SDS011;66168;45.478;11.060;2023-01-23T09:08:03;4.70;;;2.90;;
76867;SDS011;66168;45.478;11.060;2023-01-23T09:10:30;6.30;;;3.60;;
76867;SDS011;66168;45.478;11.060;2023-01-23T09:12:57;9.20;;;4.30;;
76867;SDS011;66168;45.478;11.060;2023-01-23T09:15:24;5.30;;;2.90;;
76867;SDS011;66168;45.478;11.060;2023-01-23T09:17:50;3.00;;;1.40;;
76867;SDS011;66168;45.478;11.060;2023-01-23T09:20:17;2.90;;;1.70;;
76867;SDS011;66168;45.478;11.060;2023-01-23T09:22:44;4.60;;;3.10;;
76867;SDS011;66168;45.478;11.060;2023-01-23T09:25:11;4.70;;;2.90;;
76867;SDS011;66168;45.478;11.060;2023-01-23T09:27:39;1.10;;;0.90;;
76867;SDS011;66168;45.478;11.060;2023-01-23T09:30:06;3.00;;;1.60;;
76867;SDS011;66168;45.478;11.060;2023-01-23T09:32:33;3.10;;;2.60;;
76867;SDS011;66168;45.478;11.060;2023-01-23T09:35:00;1.70;;;1.50;;
76867;SDS011;66168;45.478;11.060;2023-01-23T09:37:29;1.20;;;1.10;;
76867;SDS011;66168;45.478;11.060;2023-01-23T09:40:24;1.00;;;0.90;;
76867;SDS011;66168;45.478;11.060;2023-01-23T09:42:52;0.60;;;0.60;;
76867;SDS011;66168;45.478;11.060;2023-01-23T09:45:23;0.80;;;0.70;;
76867;SDS011;66168;45.478;11.060;2023-01-23T09:47:59;1.20;;;1.00;;
76867;SDS011;66168;45.478;11.060;2023-01-23T09:50:42;1.00;;;1.00;;
76867;SDS011;66168;45.478;11.060;2023-01-23T09:53:21;0.40;;;0.40;;
76867;SDS011;66168;45.478;11.060;2023-01-23T09:56:34;0.50;;;0.50;;
76867;SDS011;66168;45.478;11.060;2023-01-23T10:01:35;0.90;;;0.80;;
76867;SDS011;66168;45.478;11.060;2023-01-23T10:04:03;0.30;;;0.30;;
76867;SDS011;66168;45.478;11.060;2023-01-23T10:06:32;0.40;;;0.40;;
76867;SDS011;66168;45.478;11.060;2023-01-23T10:15:01;0.80;;;0.70;;
76867;SDS011;66168;45.478;11.060;2023-01-23T10:26:20;0.10;;;0.10;;
76867;SDS011;66168;45.478;11.060;2023-01-23T10:28:56;0.10;;;0.10;;
76867;SDS011;66168;45.478;11.060;2023-01-23T10:36:46;0.60;;;0.50;;
76867;SDS011;66168;45.478;11.060;2023-01-23T10:39:26;0.50;;;0.40;;
76867;SDS011;66168;45.478;11.060;2023-01-23T10:41:56;0.40;;;0.40;;
76867;SDS011;66168;45.478;11.060;2023-01-23T10:44:27;0.10;;;0.10;;
76867;SDS011;66168;45.478;11.060;2023-01-23T10:46:58;0.90;;;0.50;;
76867;SDS011;66168;45.478;11.060;2023-01-23T10:49:33;0.10;;;0.10;;
76867;SDS011;66168;45.478;11.060;2023-01-23T10:52:08;0.20;;;0.10;;
76867;SDS011;66168;45.478;11.060;2023-01-23T10:54:55;0.30;;;0.30;;
76867;SDS011;66168;45.478;11.060;2023-01-23T10:57:29;0.30;;;0.20;;
76867;SDS011;66168;45.478;11.060;2023-01-23T11:00:19;0.20;;;0.20;;
76867;SDS011;66168;45.478;11.060;2023-01-23T11:06:07;0.60;;;0.40;;
76867;SDS011;66168;45.478;11.060;2023-01-23T11:08:36;0.30;;;0.30;;
76867;SDS011;66168;45.478;11.060;2023-01-23T11:13:44;0.80;;;0.50;;
76867;SDS011;66168;45.478;11.060;2023-01-23T11:16:16;1.00;;;0.60;;
76867;SDS011;66168;45.478;11.060;2023-01-23T11:18:48;0.30;;;0.30;;
76867;SDS011;66168;45.478;11.060;2023-01-23T11:21:23;0.20;;;0.20;;
76867;SDS011;66168;45.478;11.060;2023-01-23T11:32:24;0.20;;;0.10;;
76867;SDS011;66168;45.478;11.060;2023-01-23T11:34:52;0.80;;;0.40;;
76867;SDS011;66168;45.478;11.060;2023-01-23T11:37:34;0.10;;;0.10;;
76867;SDS011;66168;45.478;11.060;2023-01-23T11:40:18;0.30;;;0.10;;
76867;SDS011;66168;45.478;11.060;2023-01-23T11:42:45;0.60;;;0.30;;
76867;SDS011;66168;45.478;11.060;2023-01-23T11:45:34;0.20;;;0.20;;
76867;SDS011;66168;45.478;11.060;2023-01-23T11:50:48;0.50;;;0.40;;
76867;SDS011;66168;45.478;11.060;2023-01-23T11:59:10;0.40;;;0.30;;
76867;SDS011;66168;45.478;11.060;2023-01-23T12:07:20;1.10;;;0.70;;
76867;SDS011;66168;45.478;11.060;2023-01-23T12:09:56;2.20;;;1.40;;
76867;SDS011;66168;45.478;11.060;2023-01-23T12:15:59;4.50;;;2.60;;
76867;SDS011;66168;45.478;11.060;2023-01-23T12:21:11;2.20;;;1.00;;
76867;SDS011;66168;45.478;11.060;2023-01-23T12:26:20;1.90;;;1.20;;
76867;SDS011;66168;45.478;11.060;2023-01-23T12:28:58;0.80;;;0.50;;
76867;SDS011;66168;45.478;11.060;2023-01-23T12:31:41;0.80;;;0.80;;
76867;SDS011;66168;45.478;11.060;2023-01-23T12:40:00;1.30;;;1.10;;
76867;SDS011;66168;45.478;11.060;2023-01-23T12:47:40;0.60;;;0.60;;
76867;SDS011;66168;45.478;11.060;2023-01-23T12:52:53;0.80;;;0.40;;
76867;SDS011;66168;45.478;11.060;2023-01-23T12:58:14;0.40;;;0.40;;
76867;SDS011;66168;45.478;11.060;2023-01-23T13:04:06;0.60;;;0.50;;
76867;SDS011;66168;45.478;11.060;2023-01-23T13:14:49;0.40;;;0.30;;
76867;SDS011;66168;45.478;11.060;2023-01-23T13:17:40;0.30;;;0.30;;
76867;SDS011;66168;45.478;11.060;2023-01-23T13:28:46;2.90;;;1.50;;
76867;SDS011;66168;45.478;11.060;2023-01-23T13:34:48;1.10;;;0.80;;
76867;SDS011;66168;45.478;11.060;2023-01-23T13:36:51;0.50;;;0.50;;
76867;SDS011;66168;45.478;11.060;2023-01-23T13:39:22;1.20;;;0.90;;
76867;SDS011;66168;45.478;11.060;2023-01-23T13:42:31;0.60;;;0.60;;
76867;SDS011;66168;45.478;11.060;2023-01-23T13:51:12;0.40;;;0.20;;
76867;SDS011;66168;45.478;11.060;2023-01-23T13:53:58;0.50;;;0.40;;
76867;SDS011;66168;45.478;11.060;2023-01-23T13:56:58;1.00;;;0.40;;
76867;SDS011;66168;45.478;11.060;2023-01-23T13:59:41;0.40;;;0.20;;
76867;SDS011;66168;45.478;11.060;2023-01-23T14:02:30;0.10;;;0.10;;
76867;SDS011;66168;45.478;11.060;2023-01-23T14:05:36;0.60;;;0.30;;
76867;SDS011;66168;45.478;11.060;2023-01-23T14:08:18;1.40;;;0.30;;
76867;SDS011;66168;45.478;11.060;2023-01-23T14:11:01;0.10;;;0.10;;
76867;SDS011;66168;45.478;11.060;2023-01-23T14:13:52;0.30;;;0.30;;
76867;SDS011;66168;45.478;11.060;2023-01-23T14:16:43;0.50;;;0.50;;
76867;SDS011;66168;45.478;11.060;2023-01-23T14:19:22;0.30;;;0.20;;
76867;SDS011;66168;45.478;11.060;2023-01-23T14:22:05;0.20;;;0.20;;
76867;SDS011;66168;45.478;11.060;2023-01-23T14:24:41;0.30;;;0.30;;
76867;SDS011;66168;45.478;11.060;2023-01-23T14:27:20;0.30;;;0.30;;
76867;SDS011;66168;45.478;11.060;2023-01-23T14:29:58;0.30;;;0.20;;
76867;SDS011;66168;45.478;11.060;2023-01-23T14:32:28;0.30;;;0.30;;
76867;SDS011;66168;45.478;11.060;2023-01-23T14:34:58;0.20;;;0.20;;
76867;SDS011;66168;45.478;11.060;2023-01-23T14:37:25;0.20;;;0.20;;
76867;SDS011;66168;45.478;11.060;2023-01-23T14:39:52;0.20;;;0.20;;
76867;SDS011;66168;45.478;11.060;2023-01-23T14:42:26;0.20;;;0.20;;
76867;SDS011;66168;45.478;11.060;2023-01-23T14:44:55;0.50;;;0.10;;
76867;SDS011;66168;45.478;11.060;2023-01-23T14:47:28;0.20;;;0.20;;
76867;SDS011;66168;45.478;11.060;2023-01-23T14:50:00;0.40;;;0.40;;
76867;SDS011;66168;45.478;11.060;2023-01-23T14:52:29;0.10;;;0.10;;
76867;SDS011;66168;45.478;11.060;2023-01-23T14:54:57;0.00;;;0.00;;
76867;SDS011;66168;45.478;11.060;2023-01-23T14:57:32;0.30;;;0.30;;
76867;SDS011;66168;45.478;11.060;2023-01-23T15:00:01;0.30;;;0.30;;
76867;SDS011;66168;45.478;11.060;2023-01-23T15:05:05;0.10;;;0.10;;
76867;SDS011;66168;45.478;11.060;2023-01-23T15:08:15;0.50;;;0.40;;
76867;SDS011;66168;45.478;11.060;2023-01-23T15:10:47;0.10;;;0.10;;
76867;SDS011;66168;45.478;11.060;2023-01-23T15:15:53;0.30;;;0.10;;
76867;SDS011;66168;45.478;11.060;2023-01-23T15:18:23;0.00;;;0.00;;
76867;SDS011;66168;45.478;11.060;2023-01-23T15:20:58;0.20;;;0.20;;
76867;SDS011;66168;45.478;11.060;2023-01-23T15:23:37;0.40;;;0.40;;
76867;SDS011;66168;45.478;11.060;2023-01-23T15:28:55;0.30;;;0.30;;
76867;SDS011;66168;45.478;11.060;2023-01-23T15:34:09;0.20;;;0.20;;
76867;SDS011;66168;45.478;11.060;2023-01-23T15:36:45;0.30;;;0.30;;
76867;SDS011;66168;45.478;11.060;2023-01-23T15:39:23;0.10;;;0.10;;
76867;SDS011;66168;45.478;11.060;2023-01-23T15:44:31;0.40;;;0.40;;
76867;SDS011;66168;45.478;11.060;2023-01-23T15:46:58;0.20;;;0.20;;
76867;SDS011;66168;45.478;11.060;2023-01-23T15:49:30;0.30;;;0.30;;
76867;SDS011;66168;45.478;11.060;2023-01-23T15:51:59;0.40;;;0.40;;
76867;SDS011;66168;45.478;11.060;2023-01-23T15:54:32;0.50;;;0.50;;
76867;SDS011;66168;45.478;11.060;2023-01-23T15:57:01;0.50;;;0.40;;
76867;SDS011;66168;45.478;11.060;2023-01-23T15:59:34;0.20;;;0.20;;
76867;SDS011;66168;45.478;11.060;2023-01-23T16:02:02;0.20;;;0.10;;
76867;SDS011;66168;45.478;11.060;2023-01-23T16:04:30;0.40;;;0.40;;
76867;SDS011;66168;45.478;11.060;2023-01-23T16:06:58;0.60;;;0.60;;
76867;SDS011;66168;45.478;11.060;2023-01-23T16:09:29;0.20;;;0.20;;
76867;SDS011;66168;45.478;11.060;2023-01-23T16:11:58;0.50;;;0.50;;
76867;SDS011;66168;45.478;11.060;2023-01-23T16:14:25;0.30;;;0.30;;
76867;SDS011;66168;45.478;11.060;2023-01-23T16:16:53;0.50;;;0.50;;
76867;SDS011;66168;45.478;11.060;2023-01-23T16:19:23;0.30;;;0.30;;
76867;SDS011;66168;45.478;11.060;2023-01-23T16:21:50;0.50;;;0.30;;
76867;SDS011;66168;45.478;11.060;2023-01-23T16:24:31;0.40;;;0.30;;
76867;SDS011;66168;45.478;11.060;2023-01-23T16:29:30;0.40;;;0.30;;
76867;SDS011;66168;45.478;11.060;2023-01-23T16:31:59;0.20;;;0.20;;
76867;SDS011;66168;45.478;11.060;2023-01-23T16:34:28;0.30;;;0.30;;
76867;SDS011;66168;45.478;11.060;2023-01-23T16:36:55;0.40;;;0.40;;
76867;SDS011;66168;45.478;11.060;2023-01-23T16:39:28;0.50;;;0.50;;
76867;SDS011;66168;45.478;11.060;2023-01-23T16:41:57;2.30;;;0.20;;
76867;SDS011;66168;45.478;11.060;2023-01-23T16:44:25;0.20;;;0.20;;
76867;SDS011;66168;45.478;11.060;2023-01-23T16:46:52;0.40;;;0.20;;
76867;SDS011;66168;45.478;11.060;2023-01-23T16:49:19;0.30;;;0.30;;
76867;SDS011;66168;45.478;11.060;2023-01-23T16:51:56;1.10;;;0.50;;
76867;SDS011;66168;45.478;11.060;2023-01-23T16:54:25;24.70;;;11.00;;
76867;SDS011;66168;45.478;11.060;2023-01-23T16:56:53;3.70;;;2.20;;
76867;SDS011;66168;45.478;11.060;2023-01-23T16:59:32;1.50;;;1.30;;